createdAt,value
2023-01-08T00:02:21.657Z,99860.19
2023-01-08T00:04:48.367Z,99859.09
2023-01-08T00:07:15.018Z,99855.34
2023-01-08T00:09:41.724Z,99851.22
2023-01-08T00:12:08.470Z,99850.75
2023-01-08T00:14:35.065Z,99845.56
2023-01-08T00:17:02.783Z,99841.53
2023-01-08T00:19:31.106Z,99828.75
2023-01-08T00:21:57.673Z,99823.88
2023-01-08T00:24:24.327Z,99825.53
2023-01-08T00:26:50.923Z,99823.41
2023-01-08T00:29:17.854Z,99822.06
2023-01-08T00:31:45.319Z,99817.31
2023-01-08T00:34:12.075Z,99803.81
2023-01-08T00:36:38.988Z,99789.53
2023-01-08T00:39:05.611Z,99802.59
2023-01-08T00:41:32.279Z,99797.03
2023-01-08T00:43:58.897Z,99807.22
2023-01-08T00:46:25.536Z,99794.19
2023-01-08T00:48:52.230Z,99800.88
2023-01-08T00:51:18.993Z,99808.38
2023-01-08T00:53:45.642Z,99806.16
2023-01-08T00:56:12.345Z,99806.19
2023-01-08T00:58:39.092Z,99809.56
2023-01-08T01:01:13.193Z,99804.47
2023-01-08T01:03:40.063Z,99798.72
2023-01-08T01:06:07.665Z,99779.91
2023-01-08T01:08:35.192Z,99778.28
2023-01-08T01:11:09.819Z,99784.56
2023-01-08T01:13:36.562Z,99773.72
2023-01-08T01:16:03.981Z,99779.72
2023-01-08T01:18:31.658Z,99777.50
2023-01-08T01:20:58.322Z,99787.66
2023-01-08T01:23:25.224Z,99800.00
2023-01-08T01:25:51.986Z,99802.25
2023-01-08T01:28:18.657Z,99803.63
2023-01-08T01:30:45.372Z,99800.16
2023-01-08T01:33:11.980Z,99808.13
2023-01-08T01:35:38.580Z,99800.38
2023-01-08T01:38:05.257Z,99815.56
2023-01-08T01:40:31.986Z,99814.97
2023-01-08T01:42:59.509Z,99812.75
2023-01-08T01:45:31.220Z,99811.06
2023-01-08T01:48:06.245Z,99809.38
2023-01-08T01:50:40.040Z,99810.47
2023-01-08T01:53:18.079Z,99807.66
2023-01-08T01:55:46.265Z,99801.38
2023-01-08T01:58:20.662Z,99794.09
2023-01-08T02:00:47.673Z,99792.22
2023-01-08T02:03:16.411Z,99785.34
2023-01-08T02:05:59.864Z,99787.75
2023-01-08T02:08:48.347Z,99778.72
2023-01-08T02:11:25.458Z,99784.16
2023-01-08T02:14:13.198Z,99778.31
2023-01-08T02:16:48.019Z,99778.56
2023-01-08T02:19:36.600Z,99777.63
2023-01-08T02:22:38.406Z,99782.72
2023-01-08T02:25:41.461Z,99765.88
2023-01-08T02:28:14.611Z,99771.19
2023-01-08T02:30:42.053Z,99768.50
2023-01-08T02:33:08.650Z,99770.91
2023-01-08T02:36:09.986Z,99768.41
2023-01-08T02:38:42.599Z,99769.63
2023-01-08T02:41:12.515Z,99761.72
2023-01-08T02:43:47.356Z,99765.38
2023-01-08T02:46:19.598Z,99759.38
2023-01-08T02:48:50.405Z,99758.38
2023-01-08T02:51:35.138Z,99743.72
2023-01-08T02:54:09.361Z,99738.41
2023-01-08T02:56:41.393Z,99735.72
2023-01-08T02:59:12.403Z,99732.97
2023-01-08T03:01:40.933Z,99726.59
2023-01-08T03:04:16.075Z,99720.09
2023-01-08T03:06:43.566Z,99720.16
2023-01-08T03:09:11.030Z,99712.38
2023-01-08T03:11:50.227Z,99700.81
2023-01-08T03:14:25.033Z,99689.56
2023-01-08T03:17:08.430Z,99683.13
2023-01-08T03:19:42.728Z,99683.22
2023-01-08T03:22:13.325Z,99686.69
2023-01-08T03:24:42.638Z,99683.13
2023-01-08T03:27:16.367Z,99687.28
2023-01-08T03:29:45.171Z,99686.88
2023-01-08T03:32:15.975Z,99690.31
2023-01-08T03:34:45.702Z,99691.84
2023-01-08T03:37:15.325Z,99689.91
2023-01-08T03:39:51.535Z,99695.69
2023-01-08T03:42:20.555Z,99692.34
2023-01-08T03:44:47.346Z,99686.38
2023-01-08T03:47:15.674Z,99677.03
2023-01-08T03:49:44.540Z,99671.16
2023-01-08T03:52:30.566Z,99666.22
2023-01-08T03:54:57.832Z,99670.56
2023-01-08T03:57:25.073Z,99675.69
2023-01-08T03:59:51.730Z,99669.97
2023-01-08T04:02:18.907Z,99668.16
2023-01-08T04:04:45.645Z,99670.34
2023-01-08T04:07:12.566Z,99669.91
2023-01-08T04:09:39.233Z,99656.53
2023-01-08T04:12:06.133Z,99661.63
2023-01-08T04:14:33.034Z,99657.53
2023-01-08T04:16:59.626Z,99666.16
2023-01-08T04:19:26.254Z,99655.28
2023-01-08T04:21:53.415Z,99666.47
2023-01-08T04:24:20.045Z,99656.81
2023-01-08T04:26:46.802Z,99658.94
2023-01-08T04:29:14.308Z,99659.47
2023-01-08T04:31:41.086Z,99659.31
2023-01-08T04:34:08.031Z,99653.94
2023-01-08T04:36:34.665Z,99653.16
2023-01-08T04:39:01.313Z,99656.13
2023-01-08T04:41:27.961Z,99662.63
2023-01-08T04:43:55.634Z,99657.97
2023-01-08T04:46:22.292Z,99660.41
2023-01-08T04:48:49.160Z,99669.88
2023-01-08T04:51:15.809Z,99668.41
2023-01-08T04:53:42.470Z,99665.31
2023-01-08T04:56:11.062Z,99669.34
2023-01-08T04:58:38.818Z,99658.53
2023-01-08T05:01:25.281Z,99653.66
2023-01-08T05:04:01.109Z,99659.47
2023-01-08T05:06:30.042Z,99650.44
2023-01-08T05:08:57.382Z,99661.31
2023-01-08T05:11:25.486Z,99660.69
2023-01-08T05:13:53.403Z,99669.13
2023-01-08T05:16:20.442Z,99665.59
2023-01-08T05:18:47.632Z,99659.56
2023-01-08T05:21:14.659Z,99664.78
2023-01-08T05:23:46.554Z,99664.84
2023-01-08T05:26:13.679Z,99666.63
2023-01-08T05:28:40.525Z,99663.03
2023-01-08T05:31:07.328Z,99656.41
2023-01-08T05:33:34.011Z,99656.28
2023-01-08T05:36:00.861Z,99658.63
2023-01-08T05:38:27.630Z,99653.53
2023-01-08T05:40:54.295Z,99647.97
2023-01-08T05:43:20.905Z,99652.41
2023-01-08T05:45:47.953Z,99643.22
2023-01-08T05:48:14.623Z,99644.28
2023-01-08T05:50:41.257Z,99644.84
2023-01-08T05:53:09.210Z,99640.25
2023-01-08T05:55:36.646Z,99635.69
2023-01-08T05:58:05.708Z,99641.69
2023-01-08T06:00:34.067Z,99644.34
2023-01-08T06:03:00.835Z,99637.78
2023-01-08T06:05:27.760Z,99639.44
2023-01-08T06:07:54.487Z,99627.03
2023-01-08T06:10:21.083Z,99634.56
2023-01-08T06:12:47.660Z,99630.75
2023-01-08T06:15:14.295Z,99626.03
2023-01-08T06:17:41.953Z,99634.06
2023-01-08T06:20:09.501Z,99636.78
2023-01-08T06:22:36.608Z,99641.44
2023-01-08T06:25:04.245Z,99643.97
2023-01-08T06:27:30.964Z,99644.16
2023-01-08T06:29:57.617Z,99654.47
2023-01-08T06:32:24.281Z,99647.34
2023-01-08T06:34:50.879Z,99646.63
2023-01-08T06:37:17.523Z,99650.03
2023-01-08T06:39:44.139Z,99643.06
2023-01-08T06:42:10.762Z,99647.34
2023-01-08T06:44:37.392Z,99648.38
2023-01-08T06:47:04.011Z,99657.34
2023-01-08T06:49:30.658Z,99647.56
2023-01-08T06:51:57.425Z,99661.69
2023-01-08T06:54:24.068Z,99654.72
2023-01-08T06:56:53.914Z,99655.28
2023-01-08T06:59:21.608Z,99654.78
2023-01-08T07:01:48.949Z,99647.84
2023-01-08T07:04:15.853Z,99642.63
2023-01-08T07:06:42.451Z,99654.84
2023-01-08T07:09:13.155Z,99653.66
2023-01-08T07:11:41.142Z,99659.44
2023-01-08T07:14:08.186Z,99663.00
2023-01-08T07:16:35.714Z,99661.13
2023-01-08T07:19:02.319Z,99662.50
2023-01-08T07:21:28.951Z,99661.06
2023-01-08T07:23:55.577Z,99656.41
2023-01-08T07:26:22.311Z,99659.94
2023-01-08T07:28:49.013Z,99649.47
2023-01-08T07:31:15.697Z,99649.78
2023-01-08T07:33:42.341Z,99661.66
2023-01-08T07:36:09.388Z,99651.72
2023-01-08T07:38:38.313Z,99657.78
2023-01-08T07:41:05.122Z,99662.94
2023-01-08T07:43:31.921Z,99653.78
2023-01-08T07:45:58.764Z,99659.25
2023-01-08T07:48:25.327Z,99671.78
2023-01-08T07:50:52.144Z,99678.41
2023-01-08T07:53:19.110Z,99672.41
2023-01-08T07:55:45.700Z,99671.47
2023-01-08T07:58:14.482Z,99677.22
2023-01-08T08:00:41.875Z,99669.25
2023-01-08T08:03:11.621Z,99663.38
2023-01-08T08:05:38.594Z,99654.06
2023-01-08T08:08:12.714Z,99664.25
2023-01-08T08:10:41.123Z,99660.31
2023-01-08T08:13:12.028Z,99657.56
2023-01-08T08:15:39.958Z,99660.59
2023-01-08T08:18:06.956Z,99655.66
2023-01-08T08:20:33.721Z,99666.00
2023-01-08T08:23:08.672Z,99660.38
2023-01-08T08:25:36.709Z,99660.66
2023-01-08T08:28:04.551Z,99656.41
2023-01-08T08:30:33.247Z,99657.72
2023-01-08T08:33:01.621Z,99655.34
2023-01-08T08:35:29.685Z,99647.31
2023-01-08T08:37:57.133Z,99647.81
2023-01-08T08:40:24.916Z,99644.53
2023-01-08T08:43:03.011Z,99635.50
2023-01-08T08:45:29.888Z,99645.47
2023-01-08T08:47:56.647Z,99638.19
2023-01-08T08:50:23.925Z,99651.34
2023-01-08T08:52:50.620Z,99646.78
2023-01-08T08:55:17.814Z,99648.72
2023-01-08T08:57:46.392Z,99643.84
2023-01-08T09:00:14.332Z,99641.84
2023-01-08T09:02:44.070Z,99645.16
2023-01-08T09:05:11.563Z,99633.38
2023-01-08T09:07:38.288Z,99629.13
2023-01-08T09:10:05.959Z,99627.94
2023-01-08T09:12:32.603Z,99635.25
2023-01-08T09:14:59.306Z,99624.59
2023-01-08T09:17:26.110Z,99635.75
2023-01-08T09:19:53.093Z,99637.94
2023-01-08T09:22:20.405Z,99631.50
2023-01-08T09:24:47.338Z,99629.66
2023-01-08T09:27:14.533Z,99629.16
2023-01-08T09:29:41.176Z,99633.03
2023-01-08T09:32:08.621Z,99633.78
2023-01-08T09:34:38.374Z,99625.25
2023-01-08T09:37:06.041Z,99627.63
2023-01-08T09:39:42.352Z,99630.88
2023-01-08T09:42:12.989Z,99635.97
2023-01-08T09:44:45.520Z,99628.47
2023-01-08T09:47:26.647Z,99628.97
2023-01-08T09:49:58.524Z,99628.03
2023-01-08T09:52:25.653Z,99623.13
2023-01-08T09:54:52.599Z,99620.72
2023-01-08T09:57:21.449Z,99624.69
2023-01-08T09:59:49.648Z,99635.44
2023-01-08T10:02:19.179Z,99632.25
2023-01-08T10:04:48.676Z,99627.41
2023-01-08T10:07:21.476Z,99635.41
2023-01-08T10:09:52.316Z,99637.75
2023-01-08T10:12:28.502Z,99636.00
2023-01-08T10:14:58.299Z,99629.66
2023-01-08T10:17:36.689Z,99630.69
2023-01-08T10:20:16.156Z,99631.09
2023-01-08T10:22:44.016Z,99625.13
2023-01-08T10:25:17.935Z,99629.16
2023-01-08T10:27:53.984Z,99619.06
2023-01-08T10:30:23.699Z,99619.88
2023-01-08T10:32:55.997Z,99615.00
2023-01-08T10:35:31.410Z,99620.41
2023-01-08T10:37:58.869Z,99614.53
2023-01-08T10:40:37.846Z,99613.53
2023-01-08T10:43:25.918Z,99599.09
2023-01-08T10:46:07.936Z,99602.88
2023-01-08T10:48:44.774Z,99590.91
2023-01-08T10:51:25.716Z,99581.56
2023-01-08T10:53:53.860Z,99584.78
2023-01-08T10:56:28.553Z,99585.38
2023-01-08T10:58:56.245Z,99577.72
2023-01-08T11:01:23.143Z,99574.38
2023-01-08T11:03:52.959Z,99581.63
2023-01-08T11:06:23.503Z,99580.38
2023-01-08T11:08:52.839Z,99576.53
2023-01-08T11:11:20.080Z,99569.25
2023-01-08T11:13:59.956Z,99568.53
2023-01-08T11:16:36.642Z,99570.09
2023-01-08T11:19:04.619Z,99563.38
2023-01-08T11:21:34.056Z,99563.13
2023-01-08T11:24:09.757Z,99545.44
2023-01-08T11:26:38.731Z,99535.28
2023-01-08T11:29:38.925Z,99532.25
2023-01-08T11:32:15.949Z,99542.00
2023-01-08T11:35:03.402Z,99533.22
2023-01-08T11:37:35.761Z,99522.22
2023-01-08T11:40:03.284Z,99520.84
2023-01-08T11:42:30.052Z,99515.47
2023-01-08T11:45:20.744Z,99508.25
2023-01-08T11:48:11.281Z,99503.66
2023-01-08T11:51:04.578Z,99491.28
2023-01-08T11:53:45.564Z,99494.78
2023-01-08T11:56:21.457Z,99485.09
2023-01-08T11:59:08.533Z,99488.84
2023-01-08T12:01:41.322Z,99482.66
2023-01-08T12:04:45.969Z,99489.09
2023-01-08T12:07:25.605Z,99469.75
2023-01-08T12:10:05.112Z,99473.78
2023-01-08T12:12:50.886Z,99468.16
2023-01-08T12:15:44.427Z,99476.50
2023-01-08T12:18:18.520Z,99466.00
2023-01-08T12:21:10.188Z,99469.16
2023-01-08T12:23:46.414Z,99454.97
2023-01-08T12:26:22.274Z,99443.41
2023-01-08T12:29:30.931Z,99445.00
2023-01-08T12:32:21.489Z,99442.88
2023-01-08T12:35:05.956Z,99438.25
2023-01-08T12:37:44.331Z,99437.72
2023-01-08T12:40:16.672Z,99436.88
2023-01-08T12:42:50.179Z,99433.16
2023-01-08T12:45:28.555Z,99427.78
2023-01-08T12:48:01.580Z,99423.47
2023-01-08T12:50:37.483Z,99415.16
2023-01-08T12:53:11.727Z,99414.63
2023-01-08T12:55:44.492Z,99409.78
2023-01-08T12:58:33.002Z,99403.59
2023-01-08T13:01:06.164Z,99404.69
2023-01-08T13:03:33.614Z,99397.97
2023-01-08T13:06:13.460Z,99411.97
2023-01-08T13:08:44.515Z,99420.25
2023-01-08T13:11:11.272Z,99415.41
2023-01-08T13:13:41.848Z,99407.59
2023-01-08T13:16:11.514Z,99410.28
2023-01-08T13:18:38.728Z,99416.22
2023-01-08T13:21:07.308Z,99411.38
2023-01-08T13:23:35.276Z,99407.34
2023-01-08T13:26:06.547Z,99401.97
2023-01-08T13:28:44.573Z,99397.66
2023-01-08T13:31:20.085Z,99386.38
2023-01-08T13:33:49.003Z,99380.47
2023-01-08T13:36:22.776Z,99383.69
2023-01-08T13:39:11.361Z,99374.59
2023-01-08T13:41:42.739Z,99375.66
2023-01-08T13:44:29.480Z,99366.53
2023-01-08T13:46:59.016Z,99377.81
2023-01-08T13:49:35.625Z,99373.78
2023-01-08T13:52:02.597Z,99373.50
2023-01-08T13:54:37.048Z,99374.56
2023-01-08T13:57:24.214Z,99380.50
2023-01-08T13:59:57.263Z,99377.03
2023-01-08T14:02:32.978Z,99362.75
2023-01-08T14:05:01.660Z,99356.31
2023-01-08T14:07:30.783Z,99343.94
2023-01-08T14:10:08.604Z,99347.72
2023-01-08T14:12:35.835Z,99346.09
2023-01-08T14:15:04.407Z,99331.59
2023-01-08T14:17:32.516Z,99331.59
2023-01-08T14:19:59.570Z,99332.66
2023-01-08T14:22:31.403Z,99330.50
2023-01-08T14:25:02.381Z,99336.44
2023-01-08T14:27:32.136Z,99329.44
2023-01-08T14:29:59.181Z,99335.91
2023-01-08T14:32:31.236Z,99329.44
2023-01-08T14:35:00.906Z,99332.94
2023-01-08T14:37:27.710Z,99333.19
2023-01-08T14:39:55.115Z,99327.56
2023-01-08T14:42:50.007Z,99319.22
2023-01-08T14:45:24.108Z,99334.00
2023-01-08T14:47:54.067Z,99335.09
2023-01-08T14:50:32.508Z,99325.94
2023-01-08T14:53:05.364Z,99320.59
2023-01-08T14:55:35.554Z,99315.19
2023-01-08T14:58:02.442Z,99317.63
2023-01-08T15:00:31.533Z,99317.63
2023-01-08T15:02:58.482Z,99303.09
2023-01-08T15:05:30.618Z,99299.06
2023-01-08T15:07:59.841Z,99290.19
2023-01-08T15:10:34.411Z,99293.69
2023-01-08T15:13:03.656Z,99288.84
2023-01-08T15:15:31.839Z,99283.22
2023-01-08T15:17:59.147Z,99290.72
2023-01-08T15:20:31.384Z,99290.75
2023-01-08T15:22:59.269Z,99283.22
2023-01-08T15:25:29.655Z,99282.69
2023-01-08T15:28:01.519Z,99285.09
2023-01-08T15:30:38.147Z,99281.06
2023-01-08T15:33:24.831Z,99276.50
2023-01-08T15:35:51.680Z,99281.03
2023-01-08T15:38:21.131Z,99279.44
2023-01-08T15:40:48.434Z,99268.16
2023-01-08T15:43:17.320Z,99270.84
2023-01-08T15:45:48.947Z,99263.59
2023-01-08T15:48:15.909Z,99256.31
2023-01-08T15:50:44.544Z,99247.72
2023-01-08T15:53:24.779Z,99252.03
2023-01-08T15:55:52.358Z,99248.25
2023-01-08T15:58:19.115Z,99248.25
2023-01-08T16:00:46.536Z,99238.63
2023-01-08T16:03:14.244Z,99238.59
2023-01-08T16:05:40.972Z,99240.75
2023-01-08T16:08:07.666Z,99237.00
2023-01-08T16:10:34.491Z,99236.72
2023-01-08T16:13:01.631Z,99226.78
2023-01-08T16:15:30.633Z,99223.84
2023-01-08T16:17:58.394Z,99229.19
2023-01-08T16:20:25.508Z,99229.19
2023-01-08T16:22:52.296Z,99228.41
2023-01-08T16:25:19.033Z,99227.88
2023-01-08T16:27:45.878Z,99223.56
2023-01-08T16:30:17.041Z,99214.16
2023-01-08T16:32:44.060Z,99220.88
2023-01-08T16:35:11.316Z,99221.72
2023-01-08T16:37:39.054Z,99217.66
2023-01-08T16:40:06.809Z,99216.03
2023-01-08T16:42:33.992Z,99213.09
2023-01-08T16:45:01.308Z,99214.19
2023-01-08T16:47:28.600Z,99208.00
2023-01-08T16:49:55.298Z,99219.81
2023-01-08T16:52:22.269Z,99214.16
2023-01-08T16:54:48.985Z,99214.97
2023-01-08T16:57:15.626Z,99207.97
2023-01-08T16:59:45.849Z,99210.16
2023-01-08T17:02:13.110Z,99204.19
2023-01-08T17:04:40.442Z,99202.88
2023-01-08T17:07:07.230Z,99200.69
2023-01-08T17:09:34.027Z,99200.19
2023-01-08T17:12:00.834Z,99192.41
2023-01-08T17:14:27.682Z,99184.59
2023-01-08T17:16:54.565Z,99176.56
2023-01-08T17:19:21.773Z,99171.44
2023-01-08T17:21:50.324Z,99162.31
2023-01-08T17:24:17.107Z,99159.66
2023-01-08T17:26:43.997Z,99158.03
2023-01-08T17:29:10.862Z,99158.03
2023-01-08T17:31:40.638Z,99151.03
2023-01-08T17:34:11.598Z,99142.19
2023-01-08T17:36:38.421Z,99134.66
2023-01-08T17:39:05.396Z,99127.97
2023-01-08T17:41:54.465Z,99115.88
2023-01-08T17:44:21.891Z,99116.16
2023-01-08T17:46:56.805Z,99105.13
2023-01-08T17:49:25.783Z,99112.91
2023-01-08T17:51:53.374Z,99104.59
2023-01-08T17:54:22.988Z,99108.34
2023-01-08T17:56:58.457Z,99102.72
2023-01-08T17:59:27.073Z,99108.88
2023-01-08T18:01:54.256Z,99096.00
2023-01-08T18:04:21.286Z,99095.75
2023-01-08T18:06:48.121Z,99095.75
2023-01-08T18:09:14.968Z,99097.34
2023-01-08T18:11:42.909Z,99103.81
2023-01-08T18:14:11.721Z,99105.69
2023-01-08T18:16:38.922Z,99104.09
2023-01-08T18:19:05.583Z,99107.03
2023-01-08T18:21:32.405Z,99098.97
2023-01-08T18:24:03.088Z,99100.56
2023-01-08T18:26:29.659Z,99097.88
2023-01-08T18:28:56.869Z,99099.00
2023-01-08T18:31:24.081Z,99094.44
2023-01-08T18:33:52.913Z,99086.66
2023-01-08T18:36:20.617Z,99082.38
2023-01-08T18:38:48.387Z,99076.41
2023-01-08T18:41:38.272Z,99082.34
2023-01-08T18:44:07.381Z,99085.56
2023-01-08T18:46:35.164Z,99078.28
2023-01-08T18:49:02.102Z,99071.53
2023-01-08T18:51:29.123Z,99063.44
2023-01-08T18:53:55.938Z,99055.16
2023-01-08T18:56:31.920Z,99051.06
2023-01-08T18:58:59.475Z,99051.13
2023-01-08T19:01:26.585Z,99048.44
2023-01-08T19:03:57.022Z,99040.91
2023-01-08T19:06:25.414Z,99031.19
2023-01-08T19:08:52.578Z,99040.41
2023-01-08T19:11:19.851Z,99028.81
2023-01-08T19:13:46.747Z,99035.53
2023-01-08T19:16:14.100Z,99029.38
2023-01-08T19:18:40.980Z,99021.34
2023-01-08T19:21:09.645Z,99018.97
2023-01-08T19:23:37.016Z,99018.03
2023-01-08T19:26:08.128Z,99009.75
2023-01-08T19:28:36.103Z,99008.72
2023-01-08T19:31:03.397Z,98997.97
2023-01-08T19:33:30.091Z,99000.06
2023-01-08T19:36:08.737Z,98985.63
2023-01-08T19:38:35.554Z,98984.72
2023-01-08T19:41:03.848Z,98968.94
2023-01-08T19:43:42.845Z,98961.94
2023-01-08T19:46:15.636Z,98966.75
2023-01-08T19:48:44.026Z,98964.69
2023-01-08T19:51:14.166Z,98955.59
2023-01-08T19:53:41.160Z,98956.72
2023-01-08T19:56:11.295Z,98946.22
2023-01-08T19:58:39.099Z,98952.59
2023-01-08T20:01:13.338Z,98945.09
2023-01-08T20:03:43.574Z,98947.44
2023-01-08T20:06:15.781Z,98946.38
2023-01-08T20:08:43.453Z,98941.25
2023-01-08T20:11:12.714Z,98938.28
2023-01-08T20:13:40.678Z,98931.31
2023-01-08T20:16:11.370Z,98935.63
2023-01-08T20:18:39.198Z,98918.13
2023-01-08T20:21:13.318Z,98915.72
2023-01-08T20:23:40.699Z,98915.53
2023-01-08T20:26:10.367Z,98914.81
2023-01-08T20:28:39.574Z,98911.91
2023-01-08T20:31:15.448Z,98912.47
2023-01-08T20:33:42.742Z,98905.53
2023-01-08T20:36:12.191Z,98902.81
2023-01-08T20:38:39.618Z,98891.75
2023-01-08T20:43:36.622Z,98896.41
2023-01-08T20:46:04.613Z,98896.41
2023-01-08T20:48:36.996Z,98893.16
2023-01-08T20:51:12.781Z,98882.59
2023-01-08T20:53:40.529Z,98880.19
2023-01-08T20:56:12.049Z,98874.03
2023-01-08T20:58:42.321Z,98874.63
2023-01-08T21:01:15.519Z,98868.75
2023-01-08T21:03:43.679Z,98860.91
2023-01-08T21:06:16.217Z,98854.97
2023-01-08T21:08:44.668Z,98843.19
2023-01-08T21:11:12.407Z,98852.44
2023-01-08T21:13:39.480Z,98848.66
2023-01-08T21:16:13.349Z,98854.63
2023-01-08T21:18:46.979Z,98852.34
2023-01-08T21:21:16.707Z,98845.94
2023-01-08T21:23:44.986Z,98849.38
2023-01-08T21:26:12.627Z,98846.69
2023-01-08T21:28:43.607Z,98839.56
2023-01-08T21:31:14.143Z,98842.28
2023-01-08T21:33:41.456Z,98832.66
2023-01-08T21:36:10.908Z,98814.38
2023-01-08T21:38:37.792Z,98809.00
2023-01-08T21:41:09.920Z,98810.56
2023-01-08T21:43:55.923Z,98797.69
2023-01-08T21:46:27.405Z,98795.16
2023-01-08T21:48:54.065Z,98791.63
2023-01-08T21:51:39.435Z,98793.19
2023-01-08T21:54:06.223Z,98789.13
2023-01-08T21:56:33.211Z,98798.78
2023-01-08T21:58:59.850Z,98787.78
2023-01-08T22:01:26.646Z,98782.94
2023-01-08T22:03:53.298Z,98775.47
2023-01-08T22:06:20.091Z,98779.47
2023-01-08T22:08:53.860Z,98768.72
2023-01-08T22:11:21.296Z,98762.28
2023-01-08T22:13:48.465Z,98753.69
2023-01-08T22:16:15.269Z,98753.47
2023-01-08T22:18:42.085Z,98748.06
2023-01-08T22:21:11.343Z,98748.91
2023-01-08T22:23:39.049Z,98748.56
2023-01-08T22:26:11.789Z,98746.81
2023-01-08T22:28:39.323Z,98742.00
2023-01-08T22:31:11.528Z,98734.34
2023-01-08T22:33:39.564Z,98735.47
2023-01-08T22:36:08.975Z,98732.56
2023-01-08T22:38:35.637Z,98719.50
2023-01-08T22:41:02.892Z,98720.28
2023-01-08T22:43:29.748Z,98721.66
2023-01-08T22:45:58.280Z,98706.56
2023-01-08T22:48:26.133Z,98709.25
2023-01-08T22:50:53.451Z,98706.03
2023-01-08T22:53:20.385Z,98718.91
2023-01-08T22:55:47.986Z,98712.72
2023-01-08T22:58:16.326Z,98722.06
2023-01-08T23:00:44.433Z,98712.06
2023-01-08T23:03:13.110Z,98728.44
2023-01-08T23:05:40.432Z,98725.72
2023-01-08T23:08:08.522Z,98730.00
2023-01-08T23:10:35.513Z,98718.88
2023-01-08T23:13:02.143Z,98727.31
2023-01-08T23:15:28.845Z,98729.75
2023-01-08T23:17:55.562Z,98725.84
2023-01-08T23:20:23.968Z,98734.06
2023-01-08T23:22:51.067Z,98733.00
2023-01-08T23:25:17.898Z,98728.16
2023-01-08T23:27:44.911Z,98723.16
2023-01-08T23:30:12.989Z,98721.84
2023-01-08T23:32:40.273Z,98716.75
2023-01-08T23:35:07.305Z,98717.53
2023-01-08T23:37:34.651Z,98710.31
2023-01-08T23:40:01.483Z,98714.31
2023-01-08T23:42:29.826Z,98711.34
2023-01-08T23:44:56.591Z,98711.53
2023-01-08T23:47:23.233Z,98712.09
2023-01-08T23:49:49.998Z,98712.09
2023-01-08T23:52:16.573Z,98712.41
2023-01-08T23:54:43.335Z,98704.81
2023-01-08T23:57:10.112Z,98691.78
2023-01-08T23:59:37.095Z,98690.50
